createdAt,value
2023-09-01T00:00:58.058Z,50.908073
2023-09-01T00:01:58.063Z,50.908108
2023-09-01T00:02:58.134Z,50.908096
2023-09-01T00:03:58.045Z,50.908100
2023-09-01T00:04:58.008Z,50.908123
2023-09-01T00:05:58.002Z,50.908127
2023-09-01T00:06:58.036Z,50.908131
2023-09-01T00:07:58.012Z,50.908119
2023-09-01T00:08:57.979Z,50.908134
2023-09-01T00:09:57.974Z,50.908112
2023-09-01T00:10:57.968Z,50.908176
2023-09-01T00:11:57.986Z,50.908234
2023-09-01T00:12:57.952Z,50.908173
2023-09-01T00:13:58.015Z,50.908207
2023-09-01T00:14:57.940Z,50.908123
2023-09-01T00:15:57.956Z,50.908150
2023-09-01T00:16:57.980Z,50.908150
2023-09-01T00:17:57.948Z,50.908043
2023-09-01T00:18:57.900Z,50.908051
2023-09-01T00:19:57.894Z,50.908035
2023-09-01T00:20:57.910Z,50.908039
2023-09-01T00:21:57.877Z,50.908150
2023-09-01T00:22:57.862Z,50.908146
2023-09-01T00:23:57.853Z,50.908096
2023-09-01T00:24:57.847Z,50.908005
2023-09-01T00:25:57.970Z,50.908077
2023-09-01T00:26:57.832Z,50.908096
2023-09-01T00:27:57.819Z,50.908108
2023-09-01T00:28:57.819Z,50.908115
2023-09-01T00:29:57.836Z,50.908104
2023-09-01T00:30:57.914Z,50.908043
2023-09-01T00:31:57.799Z,50.908043
2023-09-01T00:32:57.879Z,50.908035
2023-09-01T00:33:57.781Z,50.908134
2023-09-01T00:34:57.840Z,50.908100
2023-09-01T00:35:57.770Z,50.908062
2023-09-01T00:36:57.751Z,50.908077
2023-09-01T00:37:57.745Z,50.908016
2023-09-01T00:38:57.742Z,50.907986
2023-09-01T00:39:57.755Z,50.908054
2023-09-01T00:40:57.728Z,50.908043
2023-09-01T00:41:57.727Z,50.908035
2023-09-01T00:42:57.705Z,50.908031
2023-09-01T00:43:57.738Z,50.908039
2023-09-01T00:44:57.718Z,50.908089
2023-09-01T00:45:57.921Z,50.908096
2023-09-01T00:46:57.709Z,50.908154
2023-09-01T00:47:57.758Z,50.908134
2023-09-01T00:48:57.689Z,50.908108
2023-09-01T00:49:57.685Z,50.908092
2023-09-01T00:50:57.666Z,50.908077
2023-09-01T00:51:57.640Z,50.908073
2023-09-01T00:52:57.638Z,50.908089
2023-09-01T00:53:57.659Z,50.908089
2023-09-01T00:54:57.621Z,50.908062
2023-09-01T00:55:57.627Z,50.908047
2023-09-01T00:56:57.605Z,50.908123
2023-09-01T00:57:57.619Z,50.908115
2023-09-01T00:58:57.622Z,50.908115
2023-09-01T00:59:57.583Z,50.908115
2023-09-01T01:00:57.580Z,50.908077
2023-09-01T01:01:57.594Z,50.908096
2023-09-01T01:02:57.656Z,50.908100
2023-09-01T01:03:57.564Z,50.908127
2023-09-01T01:04:57.541Z,50.908100
2023-09-01T01:05:57.554Z,50.908115
2023-09-01T01:06:57.535Z,50.908070
2023-09-01T01:07:57.551Z,50.908085
2023-09-01T01:08:57.517Z,50.908119
2023-09-01T01:09:57.501Z,50.908096
2023-09-01T01:10:57.490Z,50.908092
2023-09-01T01:11:57.514Z,50.908108
2023-09-01T01:12:57.501Z,50.908127
2023-09-01T01:13:57.482Z,50.908173
2023-09-01T01:14:57.459Z,50.908157
2023-09-01T01:15:57.496Z,50.908119
2023-09-01T01:16:57.470Z,50.908146
2023-09-01T01:17:57.487Z,50.908108
2023-09-01T01:18:57.440Z,50.908096
2023-09-01T01:19:57.423Z,50.908100
2023-09-01T01:20:57.427Z,50.908104
2023-09-01T01:21:57.434Z,50.908115
2023-09-01T01:22:57.404Z,50.908115
2023-09-01T01:23:57.394Z,50.908127
2023-09-01T01:24:57.397Z,50.908123
2023-09-01T01:25:57.409Z,50.908108
2023-09-01T01:26:57.392Z,50.908146
2023-09-01T01:27:57.364Z,50.908142
2023-09-01T01:28:57.348Z,50.908112
2023-09-01T01:29:57.347Z,50.908157
2023-09-01T01:30:57.362Z,50.908115
2023-09-01T01:31:57.388Z,50.908127
2023-09-01T01:32:57.352Z,50.908127
2023-09-01T01:33:57.314Z,50.908115
2023-09-01T01:34:57.314Z,50.908123
2023-09-01T01:35:57.321Z,50.908131
2023-09-01T01:36:57.296Z,50.908146
2023-09-01T01:37:57.285Z,50.908142
2023-09-01T01:38:57.284Z,50.908134
2023-09-01T01:39:57.263Z,50.908131
2023-09-01T01:40:57.283Z,50.908108
2023-09-01T01:41:59.496Z,50.908127
2023-09-01T01:42:58.245Z,50.908138
2023-09-01T01:43:57.244Z,50.908157
2023-09-01T01:44:57.282Z,50.908215
2023-09-01T01:45:57.304Z,50.908169
2023-09-01T01:46:57.215Z,50.908161
2023-09-01T01:47:57.227Z,50.908146
2023-09-01T01:48:57.203Z,50.908150
2023-09-01T01:49:57.212Z,50.908150
2023-09-01T01:50:57.184Z,50.908134
2023-09-01T01:51:57.174Z,50.908138
2023-09-01T01:52:57.169Z,50.908115
2023-09-01T01:53:57.154Z,50.908081
2023-09-01T01:54:57.174Z,50.908127
2023-09-01T01:55:57.145Z,50.908119
2023-09-01T01:56:57.140Z,50.908119
2023-09-01T01:57:57.125Z,50.908119
2023-09-01T01:58:57.144Z,50.908104
2023-09-01T01:59:57.141Z,50.908108
2023-09-01T02:00:57.121Z,50.908115
2023-09-01T02:01:57.093Z,50.908115
2023-09-01T02:02:57.101Z,50.908131
2023-09-01T02:03:57.109Z,50.908142
2023-09-01T02:04:57.157Z,50.908154
2023-09-01T02:05:57.375Z,50.908169
2023-09-01T02:06:58.047Z,50.908123
2023-09-01T02:07:58.051Z,50.908157
2023-09-01T02:08:57.068Z,50.908157
2023-09-01T02:09:57.040Z,50.908077
2023-09-01T02:10:57.026Z,50.908070
2023-09-01T02:11:57.031Z,50.908119
2023-09-01T02:12:57.035Z,50.908100
2023-09-01T02:13:57.032Z,50.908089
2023-09-01T02:14:56.999Z,50.908157
2023-09-01T02:15:57.027Z,50.908127
2023-09-01T02:16:56.982Z,50.908123
2023-09-01T02:17:57.024Z,50.908142
2023-09-01T02:18:56.993Z,50.908134
2023-09-01T02:19:56.956Z,50.908123
2023-09-01T02:20:56.964Z,50.908146
2023-09-01T02:21:56.960Z,50.908154
2023-09-01T02:22:56.975Z,50.908146
2023-09-01T02:23:56.999Z,50.908138
2023-09-01T02:24:56.927Z,50.908131
2023-09-01T02:25:56.912Z,50.908138
2023-09-01T02:26:56.906Z,50.908138
2023-09-01T02:27:56.924Z,50.908157
2023-09-01T02:28:56.889Z,50.908165
2023-09-01T02:29:56.880Z,50.908146
2023-09-01T02:30:56.905Z,50.908142
2023-09-01T02:31:56.894Z,50.908115
2023-09-01T02:32:56.903Z,50.908154
2023-09-01T02:33:56.858Z,50.908119
2023-09-01T02:34:56.838Z,50.908085
2023-09-01T02:35:56.839Z,50.908104
2023-09-01T02:36:56.867Z,50.908131
2023-09-01T02:37:56.816Z,50.908119
2023-09-01T02:38:56.835Z,50.908070
2023-09-01T02:39:56.803Z,50.908104
2023-09-01T02:40:56.801Z,50.908161
2023-09-01T02:41:56.816Z,50.908176
2023-09-01T02:42:56.794Z,50.908161
2023-09-01T02:43:56.792Z,50.908138
2023-09-01T02:44:56.767Z,50.908123
2023-09-01T02:45:56.786Z,50.908161
2023-09-01T02:46:56.775Z,50.908150
2023-09-01T02:47:56.773Z,50.908112
2023-09-01T02:48:56.741Z,50.908142
2023-09-01T02:49:56.731Z,50.908123
2023-09-01T02:50:56.747Z,50.908173
2023-09-01T02:51:56.733Z,50.908161
2023-09-01T02:52:56.718Z,50.908165
2023-09-01T02:53:56.711Z,50.908176
2023-09-01T02:54:56.692Z,50.908108
2023-09-01T02:55:56.717Z,50.908073
2023-09-01T02:56:56.690Z,50.908051
2023-09-01T02:57:56.672Z,50.908112
2023-09-01T02:58:56.666Z,50.908092
2023-09-01T02:59:56.652Z,50.908081
2023-09-01T03:00:56.724Z,50.908115
2023-09-01T03:01:56.641Z,50.908119
2023-09-01T03:02:56.694Z,50.908092
2023-09-01T03:03:56.623Z,50.908184
2023-09-01T03:04:56.649Z,50.908142
2023-09-01T03:05:56.642Z,50.908134
2023-09-01T03:06:56.613Z,50.908138
2023-09-01T03:07:56.594Z,50.908089
2023-09-01T03:08:56.588Z,50.908134
2023-09-01T03:09:56.614Z,50.908150
2023-09-01T03:10:56.571Z,50.908157
2023-09-01T03:11:56.585Z,50.908150
2023-09-01T03:12:56.564Z,50.908154
2023-09-01T03:13:56.549Z,50.908127
2023-09-01T03:14:56.570Z,50.908169
2023-09-01T03:15:56.539Z,50.908142
2023-09-01T03:16:56.519Z,50.908127
2023-09-01T03:17:56.542Z,50.908123
2023-09-01T03:18:56.540Z,50.908123
2023-09-01T03:19:56.538Z,50.908165
2023-09-01T03:20:56.531Z,50.908188
2023-09-01T03:21:56.496Z,50.908195
2023-09-01T03:22:56.490Z,50.908138
2023-09-01T03:23:56.550Z,50.908123
2023-09-01T03:24:56.481Z,50.908138
2023-09-01T03:25:56.481Z,50.908142
2023-09-01T03:26:56.463Z,50.908112
2023-09-01T03:27:56.455Z,50.908157
2023-09-01T03:28:56.472Z,50.908154
2023-09-01T03:29:56.461Z,50.908154
2023-09-01T03:30:56.425Z,50.908154
2023-09-01T03:31:56.483Z,50.908173
2023-09-01T03:32:56.472Z,50.908157
2023-09-01T03:33:56.430Z,50.908077
2023-09-01T03:34:56.418Z,50.908173
2023-09-01T03:35:56.411Z,50.908165
2023-09-01T03:36:56.402Z,50.908127
2023-09-01T03:37:56.381Z,50.908138
2023-09-01T03:38:56.373Z,50.908115
2023-09-01T03:39:56.358Z,50.908085
2023-09-01T03:40:56.366Z,50.908146
2023-09-01T03:41:57.343Z,50.908192
2023-09-01T03:42:56.333Z,50.908150
2023-09-01T03:43:56.330Z,50.908131
2023-09-01T03:44:56.348Z,50.908115
2023-09-01T03:45:56.400Z,50.908142
2023-09-01T03:46:56.313Z,50.908108
2023-09-01T03:47:56.345Z,50.908157
2023-09-01T03:48:56.288Z,50.908154
2023-09-01T03:49:57.308Z,50.908123
2023-09-01T03:50:56.278Z,50.908112
2023-09-01T03:51:56.381Z,50.908100
2023-09-01T03:52:56.254Z,50.908104
2023-09-01T03:53:56.247Z,50.908138
2023-09-01T03:54:56.264Z,50.908161
2023-09-01T03:55:56.232Z,50.908192
2023-09-01T03:56:56.230Z,50.908119
2023-09-01T03:57:56.218Z,50.908104
2023-09-01T03:58:56.237Z,50.908085
2023-09-01T03:59:56.225Z,50.908127
2023-09-01T04:00:56.193Z,50.908108
2023-09-01T04:01:56.210Z,50.908127
2023-09-01T04:02:56.205Z,50.908131
2023-09-01T04:03:56.286Z,50.908157
2023-09-01T04:04:56.166Z,50.908142
2023-09-01T04:05:56.161Z,50.908161
2023-09-01T04:06:56.151Z,50.908108
2023-09-01T04:07:56.142Z,50.908051
2023-09-01T04:08:56.167Z,50.908020
2023-09-01T04:09:56.130Z,50.908096
2023-09-01T04:10:56.125Z,50.908054
2023-09-01T04:11:56.116Z,50.908096
2023-09-01T04:12:56.106Z,50.908131
2023-09-01T04:13:56.120Z,50.908161
2023-09-01T04:14:56.083Z,50.908058
2023-09-01T04:15:57.110Z,50.908085
2023-09-01T04:16:56.071Z,50.908092
2023-09-01T04:17:56.131Z,50.908028
2023-09-01T04:18:57.083Z,50.908108
2023-09-01T04:19:56.063Z,50.908043
2023-09-01T04:20:56.094Z,50.908081
2023-09-01T04:21:56.036Z,50.908070
2023-09-01T04:22:56.054Z,50.908127
2023-09-01T04:23:56.027Z,50.908131
2023-09-01T04:24:56.015Z,50.908092
2023-09-01T04:25:56.030Z,50.908131
2023-09-01T04:26:56.009Z,50.908211
2023-09-01T04:27:56.014Z,50.908218
2023-09-01T04:28:55.989Z,50.908165
2023-09-01T04:30:09.265Z,50.908142
2023-09-01T04:30:57.962Z,50.908146
2023-09-01T04:31:55.979Z,50.908089
2023-09-01T04:32:56.043Z,50.908020
2023-09-01T04:33:55.946Z,50.908054
2023-09-01T04:34:55.934Z,50.908104
2023-09-01T04:35:55.922Z,50.908100
2023-09-01T04:36:55.942Z,50.908100
2023-09-01T04:37:55.931Z,50.908146
2023-09-01T04:38:55.903Z,50.907940
2023-09-01T04:39:55.920Z,50.907940
2023-09-01T04:40:55.893Z,50.908100
2023-09-01T04:41:55.899Z,50.908070
2023-09-01T04:42:58.015Z,50.908051
2023-09-01T04:43:55.867Z,50.908073
2023-09-01T04:44:55.846Z,50.908092
2023-09-01T04:45:55.880Z,50.908081
2023-09-01T04:46:55.871Z,50.908165
2023-09-01T04:47:55.831Z,50.908195
2023-09-01T04:48:55.817Z,50.908134
2023-09-01T04:49:55.807Z,50.908131
2023-09-01T04:50:55.810Z,50.908123
2023-09-01T04:51:55.820Z,50.908119
2023-09-01T04:52:55.815Z,50.908123
2023-09-01T04:53:55.782Z,50.908127
2023-09-01T04:54:55.776Z,50.908127
2023-09-01T04:55:55.793Z,50.908119
2023-09-01T04:56:55.778Z,50.908123
2023-09-01T04:57:55.753Z,50.908150
2023-09-01T04:58:55.740Z,50.908131
2023-09-01T04:59:55.734Z,50.908138
2023-09-01T05:00:55.811Z,50.908142
2023-09-01T05:01:55.724Z,50.908134
2023-09-01T05:02:55.773Z,50.908138
2023-09-01T05:03:55.736Z,50.908138
2023-09-01T05:04:55.699Z,50.908123
2023-09-01T05:05:55.713Z,50.908142
2023-09-01T05:06:55.685Z,50.908123
2023-09-01T05:07:55.681Z,50.908127
2023-09-01T05:08:55.682Z,50.908119
2023-09-01T05:09:55.710Z,50.908108
2023-09-01T05:10:55.688Z,50.908131
2023-09-01T05:11:55.651Z,50.908115
2023-09-01T05:12:55.640Z,50.908138
2023-09-01T05:13:55.639Z,50.908119
2023-09-01T05:14:55.675Z,50.908146
2023-09-01T05:15:55.621Z,50.908119
2023-09-01T05:16:55.649Z,50.908115
2023-09-01T05:17:55.842Z,50.908112
2023-09-01T05:18:55.596Z,50.908096
2023-09-01T05:19:55.623Z,50.908092
2023-09-01T05:20:55.595Z,50.908146
2023-09-01T05:21:55.577Z,50.908119
2023-09-01T05:22:55.586Z,50.908123
2023-09-01T05:23:55.590Z,50.908123
2023-09-01T05:24:55.582Z,50.908054
2023-09-01T05:25:55.560Z,50.908112
2023-09-01T05:26:55.540Z,50.908146
2023-09-01T05:27:55.531Z,50.908127
2023-09-01T05:28:55.538Z,50.908096
2023-09-01T05:29:55.546Z,50.908092
2023-09-01T05:30:55.550Z,50.908077
2023-09-01T05:31:55.512Z,50.908089
2023-09-01T05:32:55.572Z,50.908054
2023-09-01T05:33:55.511Z,50.908085
2023-09-01T05:34:55.510Z,50.908092
2023-09-01T05:35:55.473Z,50.908104
2023-09-01T05:36:55.462Z,50.908131
2023-09-01T05:37:55.458Z,50.908104
2023-09-01T05:38:55.495Z,50.908096
2023-09-01T05:39:55.438Z,50.908100
2023-09-01T05:40:55.427Z,50.908104
2023-09-01T05:41:55.418Z,50.908115
2023-09-01T05:42:55.434Z,50.908077
2023-09-01T05:43:55.429Z,50.908112
2023-09-01T05:44:55.396Z,50.908115
2023-09-01T05:45:57.931Z,50.908096
2023-09-01T05:46:56.383Z,50.908119
2023-09-01T05:47:55.411Z,50.908104
2023-09-01T05:48:55.365Z,50.908092
2023-09-01T05:49:55.360Z,50.908108
2023-09-01T05:50:55.354Z,50.908112
2023-09-01T05:51:55.341Z,50.908096
2023-09-01T05:52:55.358Z,50.908081
2023-09-01T05:53:55.331Z,50.908089
2023-09-01T05:54:55.323Z,50.908077
2023-09-01T05:55:55.310Z,50.908081
2023-09-01T05:56:55.311Z,50.908119
2023-09-01T05:57:55.320Z,50.908108
2023-09-01T05:58:55.292Z,50.908119
2023-09-01T05:59:55.294Z,50.908009
2023-09-01T06:00:55.275Z,50.908035
2023-09-01T06:01:55.342Z,50.908092
2023-09-01T06:02:55.349Z,50.908134
2023-09-01T06:03:55.257Z,50.908119
2023-09-01T06:04:55.241Z,50.908073
2023-09-01T06:05:55.243Z,50.908134
2023-09-01T06:06:55.281Z,50.908081
2023-09-01T06:07:55.228Z,50.908073
2023-09-01T06:08:55.215Z,50.908054
2023-09-01T06:09:55.207Z,50.908070
2023-09-01T06:10:55.200Z,50.908096
2023-09-01T06:11:55.215Z,50.908115
2023-09-01T06:12:55.181Z,50.908108
2023-09-01T06:13:55.182Z,50.908157
2023-09-01T06:14:55.179Z,50.908154
2023-09-01T06:15:55.167Z,50.908150
2023-09-01T06:16:55.182Z,50.908154
2023-09-01T06:17:55.956Z,50.908119
2023-09-01T06:18:55.138Z,50.908131
2023-09-01T06:19:55.127Z,50.908154
2023-09-01T06:20:55.149Z,50.908150
2023-09-01T06:21:55.138Z,50.908157
2023-09-01T06:22:55.124Z,50.908115
2023-09-01T06:23:55.094Z,50.908104
2023-09-01T06:24:55.092Z,50.908123
2023-09-01T06:25:55.135Z,50.908138
2023-09-01T06:26:56.031Z,50.908176
2023-09-01T06:27:56.077Z,50.908157
2023-09-01T06:28:55.075Z,50.908199
2023-09-01T06:29:55.075Z,50.908169
2023-09-01T06:30:55.092Z,50.908157
2023-09-01T06:31:55.035Z,50.908150
2023-09-01T06:32:55.072Z,50.908195
2023-09-01T06:33:55.056Z,50.908176
2023-09-01T06:34:55.043Z,50.908138
2023-09-01T06:35:55.031Z,50.908119
2023-09-01T06:36:55.010Z,50.908138
2023-09-01T06:37:54.984Z,50.908184
2023-09-01T06:38:54.987Z,50.908154
2023-09-01T06:39:54.996Z,50.908169
2023-09-01T06:40:54.964Z,50.908127
2023-09-01T06:41:54.958Z,50.908104
2023-09-01T06:42:54.949Z,50.908123
2023-09-01T06:43:54.938Z,50.908142
2023-09-01T06:44:54.963Z,50.908154
2023-09-01T06:45:54.962Z,50.908131
2023-09-01T06:46:54.929Z,50.908150
2023-09-01T06:47:54.938Z,50.908161
2023-09-01T06:48:54.910Z,50.908127
2023-09-01T06:49:54.917Z,50.908127
2023-09-01T06:50:54.892Z,50.908119
2023-09-01T06:51:54.906Z,50.908115
2023-09-01T06:52:54.874Z,50.908134
2023-09-01T06:53:54.862Z,50.908180
2023-09-01T06:54:54.889Z,50.908157
2023-09-01T06:55:54.850Z,50.908131
2023-09-01T06:56:54.882Z,50.908131
2023-09-01T06:57:54.882Z,50.908131
2023-09-01T06:58:54.835Z,50.908127
2023-09-01T06:59:54.849Z,50.908134
2023-09-01T07:00:54.823Z,50.908138
2023-09-01T07:01:54.854Z,50.908161
2023-09-01T07:02:54.861Z,50.908134
2023-09-01T07:03:54.833Z,50.908127
2023-09-01T07:04:54.810Z,50.908127
2023-09-01T07:05:54.782Z,50.908142
2023-09-01T07:06:54.758Z,50.908119
2023-09-01T07:07:54.757Z,50.908112
2023-09-01T07:08:54.766Z,50.908127
2023-09-01T07:09:54.752Z,50.908138
2023-09-01T07:10:54.758Z,50.908157
2023-09-01T07:11:54.720Z,50.908146
2023-09-01T07:12:54.717Z,50.908138
2023-09-01T07:13:54.732Z,50.908127
2023-09-01T07:14:54.701Z,50.908131
2023-09-01T07:15:54.705Z,50.908131
2023-09-01T07:16:54.689Z,50.908123
2023-09-01T07:17:54.694Z,50.908131
2023-09-01T07:18:54.694Z,50.908138
2023-09-01T07:19:54.727Z,50.908131
2023-09-01T07:20:54.655Z,50.908134
2023-09-01T07:21:54.638Z,50.908115
2023-09-01T07:22:54.633Z,50.908077
2023-09-01T07:23:54.656Z,50.908081
2023-09-01T07:24:54.618Z,50.908096
2023-09-01T07:25:54.611Z,50.908089
2023-09-01T07:26:54.597Z,50.908115
2023-09-01T07:27:54.613Z,50.908123
2023-09-01T07:28:54.622Z,50.908096
2023-09-01T07:29:54.581Z,50.908104
2023-09-01T07:30:54.652Z,50.908108
2023-09-01T07:31:54.566Z,50.908115
2023-09-01T07:32:54.611Z,50.908112
2023-09-01T07:33:54.544Z,50.908089
2023-09-01T07:34:54.541Z,50.908112
2023-09-01T07:35:54.532Z,50.908119
2023-09-01T07:36:54.520Z,50.908104
2023-09-01T07:37:54.543Z,50.908119
2023-09-01T07:38:54.511Z,50.908112
2023-09-01T07:39:54.498Z,50.908108
2023-09-01T07:40:54.492Z,50.908092
2023-09-01T07:41:57.022Z,50.908138
2023-09-01T07:42:54.503Z,50.908112
2023-09-01T07:43:54.469Z,50.908119
2023-09-01T07:44:54.465Z,50.908115
2023-09-01T07:45:54.483Z,50.908127
2023-09-01T07:46:54.469Z,50.908138
2023-09-01T07:48:10.060Z,50.908119
2023-09-01T07:48:56.464Z,50.908146
2023-09-01T07:49:54.425Z,50.908131
2023-09-01T07:50:54.420Z,50.908154
2023-09-01T07:51:54.434Z,50.908150
2023-09-01T07:52:54.402Z,50.908138
2023-09-01T07:53:54.397Z,50.908138
2023-09-01T07:54:54.386Z,50.908100
2023-09-01T07:55:54.379Z,50.908173
2023-09-01T07:56:54.394Z,50.908112
2023-09-01T07:57:54.373Z,50.908104
2023-09-01T07:58:54.356Z,50.908142
2023-09-01T07:59:54.349Z,50.908150
2023-09-01T08:00:54.377Z,50.908138
2023-09-01T08:01:54.355Z,50.908123
2023-09-01T08:02:55.062Z,50.908039
2023-09-01T08:03:55.341Z,50.908089
2023-09-01T08:04:54.308Z,50.908092
2023-09-01T08:05:54.337Z,50.908146
2023-09-01T08:06:54.294Z,50.908146
2023-09-01T08:07:54.287Z,50.908157
2023-09-01T08:08:54.277Z,50.908165
2023-09-01T08:09:54.269Z,50.908180
2023-09-01T08:10:54.290Z,50.908192
2023-09-01T08:11:54.261Z,50.908134
2023-09-01T08:12:54.247Z,50.908192
2023-09-01T08:13:54.243Z,50.908134
2023-09-01T08:14:54.267Z,50.908157
2023-09-01T08:15:54.248Z,50.908161
2023-09-01T08:16:54.254Z,50.908184
2023-09-01T08:17:54.221Z,50.908146
2023-09-01T08:18:54.206Z,50.908123
2023-09-01T08:19:54.221Z,50.908150
2023-09-01T08:20:54.235Z,50.908169
2023-09-01T08:21:54.183Z,50.908161
2023-09-01T08:22:54.189Z,50.908157
2023-09-01T08:23:54.165Z,50.908138
2023-09-01T08:24:54.188Z,50.908161
2023-09-01T08:25:54.169Z,50.908142
2023-09-01T08:26:54.145Z,50.908188
2023-09-01T08:27:54.151Z,50.908157
2023-09-01T08:28:54.127Z,50.908031
2023-09-01T08:29:54.148Z,50.908020
2023-09-01T08:30:54.187Z,50.908077
2023-09-01T08:31:54.106Z,50.908047
2023-09-01T08:32:54.107Z,50.908028
2023-09-01T08:33:54.093Z,50.908058
2023-09-01T08:34:54.109Z,50.907993
2023-09-01T08:35:54.077Z,50.907963
2023-09-01T08:36:54.072Z,50.907974
2023-09-01T08:37:54.063Z,50.908081
2023-09-01T08:38:54.093Z,50.908108
2023-09-01T08:39:54.079Z,50.908081
2023-09-01T08:40:54.043Z,50.908016
2023-09-01T08:41:54.053Z,50.908009
2023-09-01T08:42:54.030Z,50.908066
2023-09-01T08:43:54.059Z,50.908096
2023-09-01T08:44:54.014Z,50.908115
2023-09-01T08:46:04.812Z,50.908112
2023-09-01T08:46:56.048Z,50.908077
2023-09-01T08:47:54.008Z,50.908058
2023-09-01T08:48:54.034Z,50.908035
2023-09-01T08:49:54.032Z,50.908081
2023-09-01T08:50:53.964Z,50.908169
2023-09-01T08:51:53.956Z,50.908104
2023-09-01T08:52:53.946Z,50.908081
2023-09-01T08:53:53.972Z,50.908073
2023-09-01T08:54:53.935Z,50.908058
2023-09-01T08:55:53.924Z,50.908077
2023-09-01T08:56:53.915Z,50.908077
2023-09-01T08:57:53.951Z,50.908073
2023-09-01T08:58:53.925Z,50.908070
2023-09-01T08:59:53.891Z,50.908073
2023-09-01T09:00:53.884Z,50.908066
2023-09-01T09:01:53.924Z,50.908062
2023-09-01T09:03:07.089Z,50.908020
2023-09-01T09:03:56.076Z,50.908100
2023-09-01T09:04:53.856Z,50.908081
2023-09-01T09:05:53.852Z,50.908081
2023-09-01T09:06:53.844Z,50.908092
2023-09-01T09:07:53.855Z,50.908043
2023-09-01T09:08:53.821Z,50.908043
2023-09-01T09:09:53.813Z,50.908062
2023-09-01T09:10:53.815Z,50.908104
2023-09-01T09:11:53.830Z,50.908073
2023-09-01T09:12:53.817Z,50.908070
2023-09-01T09:14:04.223Z,50.908127
2023-09-01T09:14:59.117Z,50.908154
2023-09-01T09:15:54.809Z,50.908096
2023-09-01T09:16:53.817Z,50.908092
2023-09-01T09:17:53.816Z,50.908100
2023-09-01T09:18:53.882Z,50.908096
2023-09-01T09:19:53.895Z,50.908096
2023-09-01T09:20:53.741Z,50.908089
2023-09-01T09:21:53.743Z,50.908089
2023-09-01T09:22:53.730Z,50.908115
2023-09-01T09:24:00.441Z,50.908108
2023-09-01T09:24:55.696Z,50.908108
2023-09-01T09:25:53.690Z,50.908104
2023-09-01T09:26:53.706Z,50.908112
2023-09-01T09:27:53.676Z,50.908108
2023-09-01T09:28:53.666Z,50.908092
2023-09-01T09:29:53.676Z,50.908085
2023-09-01T09:30:53.680Z,50.908089
2023-09-01T09:31:53.757Z,50.908081
2023-09-01T09:32:53.732Z,50.908096
2023-09-01T09:33:53.625Z,50.908119
2023-09-01T09:34:53.620Z,50.908131
2023-09-01T09:35:53.638Z,50.908104
2023-09-01T09:36:53.638Z,50.908104
2023-09-01T09:37:53.596Z,50.908123
2023-09-01T09:38:53.598Z,50.908100
2023-09-01T09:39:53.584Z,50.908096
2023-09-01T09:40:53.600Z,50.908089
2023-09-01T09:41:53.582Z,50.908100
2023-09-01T09:42:53.565Z,50.908100
2023-09-01T09:43:53.617Z,50.908112
2023-09-01T09:44:53.585Z,50.908104
2023-09-01T09:45:53.621Z,50.908092
2023-09-01T09:46:53.531Z,50.908115
2023-09-01T09:47:53.599Z,50.908104
2023-09-01T09:48:53.551Z,50.908112
2023-09-01T09:49:53.506Z,50.908077
2023-09-01T09:50:53.532Z,50.908104
2023-09-01T09:51:53.500Z,50.908096
2023-09-01T09:52:53.484Z,50.908096
2023-09-01T09:53:53.488Z,50.908104
2023-09-01T09:54:53.498Z,50.908104
2023-09-01T09:55:53.504Z,50.908123
2023-09-01T09:56:53.460Z,50.908127
2023-09-01T09:57:53.447Z,50.908138
2023-09-01T09:58:53.445Z,50.908112
2023-09-01T09:59:53.465Z,50.908104
2023-09-01T10:00:53.422Z,50.908073
2023-09-01T10:01:53.480Z,50.908054
2023-09-01T10:02:53.528Z,50.908043
2023-09-01T10:03:53.448Z,50.908073
2023-09-01T10:04:53.421Z,50.908096
2023-09-01T10:05:53.385Z,50.908131
2023-09-01T10:06:53.382Z,50.908108
2023-09-01T10:07:53.372Z,50.908077
2023-09-01T10:08:53.365Z,50.908100
2023-09-01T10:09:53.387Z,50.908058
2023-09-01T10:10:53.386Z,50.908184
2023-09-01T10:11:53.345Z,50.908142
2023-09-01T10:12:53.339Z,50.908096
2023-09-01T10:13:53.330Z,50.908108
2023-09-01T10:14:53.345Z,50.908127
2023-09-01T10:15:53.359Z,50.908112
2023-09-01T10:16:53.326Z,50.908081
2023-09-01T10:17:53.323Z,50.908100
2023-09-01T10:18:53.294Z,50.908154
2023-09-01T10:19:53.309Z,50.908089
2023-09-01T10:20:53.266Z,50.908039
2023-09-01T10:21:53.269Z,50.908089
2023-09-01T10:22:53.262Z,50.908035
2023-09-01T10:23:53.250Z,50.907841
2023-09-01T10:24:53.268Z,50.908115
2023-09-01T10:25:53.240Z,50.908112
2023-09-01T10:26:53.228Z,50.908054
2023-09-01T10:27:53.233Z,50.908096
2023-09-01T10:28:53.244Z,50.908092
2023-09-01T10:29:53.224Z,50.908108
2023-09-01T10:30:53.224Z,50.908031
2023-09-01T10:31:53.194Z,50.908009
2023-09-01T10:32:53.255Z,50.908089
2023-09-01T10:33:53.237Z,50.908054
2023-09-01T10:34:53.171Z,50.908112
2023-09-01T10:35:53.165Z,50.908089
2023-09-01T10:36:53.150Z,50.908085
2023-09-01T10:37:53.142Z,50.908089
2023-09-01T10:38:53.173Z,50.908096
2023-09-01T10:39:53.131Z,50.908070
2023-09-01T10:40:53.117Z,50.908073
2023-09-01T10:41:53.107Z,50.908081
2023-09-01T10:42:53.112Z,50.908096
2023-09-01T10:43:53.134Z,50.908054
2023-09-01T10:44:53.089Z,50.908077
2023-09-01T10:45:53.079Z,50.908104
2023-09-01T10:46:53.139Z,50.908108
2023-09-01T10:47:53.266Z,50.908092
2023-09-01T10:48:53.100Z,50.908115
2023-09-01T10:49:53.083Z,50.908104
2023-09-01T10:50:53.046Z,50.908138
2023-09-01T10:51:53.035Z,50.908203
2023-09-01T10:52:53.081Z,50.908245
2023-09-01T10:53:53.016Z,50.908192
2023-09-01T10:54:53.039Z,50.908207
2023-09-01T10:55:53.008Z,50.908260
2023-09-01T10:56:53.009Z,50.908150
2023-09-01T10:57:53.027Z,50.908142
2023-09-01T10:58:52.986Z,50.908112
2023-09-01T10:59:52.973Z,50.908127
2023-09-01T11:00:52.984Z,50.908138
2023-09-01T11:01:53.035Z,50.908039
2023-09-01T11:02:53.012Z,50.908127
2023-09-01T11:03:52.940Z,50.908089
2023-09-01T11:04:52.945Z,50.908123
2023-09-01T11:05:52.934Z,50.908047
2023-09-01T11:06:52.949Z,50.908123
2023-09-01T11:07:52.941Z,50.908092
2023-09-01T11:08:52.910Z,50.908096
2023-09-01T11:09:52.904Z,50.908100
2023-09-01T11:10:54.149Z,50.908104
2023-09-01T11:11:52.915Z,50.908115
2023-09-01T11:12:52.881Z,50.908134
2023-09-01T11:13:52.870Z,50.908138
2023-09-01T11:14:52.865Z,50.908115
2023-09-01T11:15:52.858Z,50.908092
2023-09-01T11:16:52.891Z,50.908100
2023-09-01T11:17:52.868Z,50.908043
2023-09-01T11:18:52.836Z,50.908112
2023-09-01T11:19:52.821Z,50.908146
2023-09-01T11:20:52.822Z,50.908150
2023-09-01T11:21:52.833Z,50.908127
2023-09-01T11:22:52.795Z,50.908138
2023-09-01T11:23:52.797Z,50.908123
2023-09-01T11:24:52.787Z,50.908112